createdAt,value
2019-02-27T00:01:33.437Z,22.87
2019-02-27T00:04:02.419Z,19.75
2019-02-27T00:06:30.451Z,20.10
2019-02-27T00:09:00.534Z,18.92
2019-02-27T00:11:27.588Z,20.53
2019-02-27T00:13:57.972Z,19.75
2019-02-27T00:16:25.076Z,20.60
2019-02-27T00:18:53.783Z,23.60
2019-02-27T00:21:22.065Z,22.22
2019-02-27T00:23:50.510Z,22.20
2019-02-27T00:26:19.290Z,22.27
2019-02-27T00:28:49.522Z,21.90
2019-02-27T00:31:18.668Z,22.62
2019-02-27T00:33:47.101Z,20.65
2019-02-27T00:36:15.593Z,18.85
2019-02-27T00:38:45.083Z,19.95
2019-02-27T00:41:13.967Z,23.40
2019-02-27T00:43:42.475Z,21.50
2019-02-27T00:46:13.419Z,23.42
2019-02-27T00:48:39.417Z,21.37
2019-02-27T00:51:09.629Z,21.80
2019-02-27T00:53:36.755Z,20.12
2019-02-27T00:56:06.205Z,28.42
2019-02-27T00:58:34.668Z,19.57
2019-02-27T01:01:03.195Z,18.32
2019-02-27T01:03:31.630Z,15.55
2019-02-27T01:06:00.130Z,17.87
2019-02-27T01:08:29.902Z,17.17
2019-02-27T01:10:59.345Z,18.55
2019-02-27T01:13:28.916Z,17.32
2019-02-27T01:15:56.297Z,18.57
2019-02-27T01:18:24.770Z,21.15
2019-02-27T01:20:53.261Z,17.65
2019-02-27T01:23:22.753Z,18.30
2019-02-27T01:25:51.237Z,19.80
2019-02-27T01:28:21.036Z,15.10
2019-02-27T01:30:50.662Z,23.27
2019-02-27T01:33:19.640Z,23.02
2019-02-27T01:35:52.287Z,25.68
2019-02-27T01:38:19.279Z,23.55
2019-02-27T01:40:48.969Z,22.00
2019-02-27T01:43:16.293Z,20.92
2019-02-27T01:45:44.723Z,19.80
2019-02-27T01:48:13.194Z,21.30
2019-02-27T01:50:41.958Z,27.10
2019-02-27T01:53:10.466Z,22.48
2019-02-27T01:55:38.942Z,22.95
2019-02-27T01:58:09.619Z,23.75
2019-02-27T02:00:35.910Z,20.95
2019-02-27T02:03:05.401Z,17.80
2019-02-27T02:05:33.906Z,18.02
2019-02-27T02:08:02.372Z,19.30
2019-02-27T02:10:30.945Z,20.10
2019-02-27T02:13:14.791Z,17.30
2019-02-27T02:15:45.195Z,17.20
2019-02-27T02:18:51.358Z,20.57
2019-02-27T02:21:43.483Z,17.57
2019-02-27T02:24:31.434Z,18.62
2019-02-27T02:27:07.993Z,18.30
2019-02-27T02:29:46.583Z,18.10
2019-02-27T02:32:37.905Z,20.95
2019-02-27T02:35:26.057Z,18.62
2019-02-27T02:38:02.869Z,15.83
2019-02-27T02:40:46.710Z,17.57
2019-02-27T02:43:50.400Z,19.50
2019-02-27T02:46:45.288Z,18.52
2019-02-27T02:49:16.721Z,17.37
2019-02-27T02:52:10.719Z,20.55
2019-02-27T02:54:50.587Z,20.80
2019-02-27T02:57:35.915Z,18.25
2019-02-27T03:00:03.311Z,19.12
2019-02-27T03:02:44.170Z,18.23
2019-02-27T03:05:41.353Z,16.10
2019-02-27T03:08:20.258Z,17.65
2019-02-27T03:10:54.337Z,19.37
2019-02-27T03:13:41.594Z,20.82
2019-02-27T03:16:12.694Z,17.32
2019-02-27T03:19:15.826Z,20.60
2019-02-27T03:21:50.605Z,17.05
2019-02-27T03:24:41.818Z,17.35
2019-02-27T03:27:13.902Z,18.37
2019-02-27T03:30:02.092Z,18.75
2019-02-27T03:32:41.295Z,18.07
2019-02-27T03:35:28.010Z,16.65
2019-02-27T03:38:02.841Z,16.55
2019-02-27T03:40:38.331Z,16.75
2019-02-27T03:43:22.063Z,16.80
2019-02-27T03:46:25.349Z,16.32
2019-02-27T03:49:06.771Z,19.90
2019-02-27T03:51:43.035Z,14.95
2019-02-27T03:54:20.895Z,20.55
2019-02-27T03:56:57.179Z,17.80
2019-02-27T03:59:51.215Z,19.77
2019-02-27T04:02:23.820Z,21.87
2019-02-27T04:05:20.847Z,22.32
2019-02-27T04:07:55.625Z,22.65
2019-02-27T04:10:24.059Z,21.15
2019-02-27T04:12:52.559Z,19.75
2019-02-27T04:15:21.416Z,24.45
2019-02-27T04:17:52.372Z,24.75
2019-02-27T04:20:22.388Z,22.42
2019-02-27T04:22:50.888Z,21.45
2019-02-27T04:25:20.066Z,24.15
2019-02-27T04:27:48.580Z,20.55
2019-02-27T04:30:17.054Z,24.92
2019-02-27T04:32:48.649Z,22.15
2019-02-27T04:35:14.583Z,20.15
2019-02-27T04:37:43.000Z,21.23
2019-02-27T04:40:15.744Z,20.45
2019-02-27T04:42:45.175Z,24.02
2019-02-27T04:45:13.660Z,20.55
2019-02-27T04:47:43.154Z,21.80
2019-02-27T04:50:11.921Z,23.38
2019-02-27T04:52:40.211Z,20.70
2019-02-27T04:55:09.333Z,22.87
2019-02-27T04:57:37.788Z,21.10
2019-02-27T05:00:06.616Z,26.27
2019-02-27T05:03:02.795Z,20.43
2019-02-27T05:05:39.127Z,23.30
2019-02-27T05:08:07.048Z,23.20
2019-02-27T05:10:38.123Z,22.10
2019-02-27T05:13:04.010Z,19.65
2019-02-27T05:15:32.496Z,22.35
2019-02-27T05:18:00.968Z,23.90
2019-02-27T05:20:29.495Z,22.82
2019-02-27T05:23:00.072Z,25.17
2019-02-27T05:25:27.740Z,18.95
2019-02-27T05:27:56.503Z,22.62
2019-02-27T05:30:26.077Z,20.95
2019-02-27T05:32:55.400Z,21.90
2019-02-27T05:35:24.455Z,23.62
2019-02-27T05:37:52.700Z,17.62
2019-02-27T05:40:23.102Z,21.80
2019-02-27T05:42:50.685Z,23.45
2019-02-27T05:45:19.179Z,23.00
2019-02-27T05:47:47.690Z,19.75
2019-02-27T05:50:16.461Z,23.85
2019-02-27T05:52:48.781Z,18.70
2019-02-27T05:55:15.466Z,22.57
2019-02-27T05:57:44.109Z,20.35
2019-02-27T06:00:13.886Z,21.57
2019-02-27T06:02:44.991Z,19.48
2019-02-27T06:05:11.114Z,24.00
2019-02-27T06:07:39.589Z,20.90
2019-02-27T06:10:09.029Z,19.05
2019-02-27T06:12:40.002Z,21.82
2019-02-27T06:15:06.799Z,20.77
2019-02-27T06:17:43.100Z,31.05
2019-02-27T06:20:07.666Z,20.85
2019-02-27T06:22:32.544Z,25.88
2019-02-27T06:25:01.002Z,25.05
2019-02-27T06:27:31.648Z,24.77
2019-02-27T06:29:59.738Z,24.47
2019-02-27T06:32:26.764Z,19.57
2019-02-27T06:34:59.463Z,25.82
2019-02-27T06:37:27.826Z,23.85
2019-02-27T06:39:56.299Z,22.00
2019-02-27T06:42:24.746Z,19.73
2019-02-27T06:44:53.172Z,25.25
2019-02-27T06:47:21.643Z,21.68
2019-02-27T06:49:51.952Z,23.02
2019-02-27T06:52:19.021Z,21.33
2019-02-27T06:54:51.909Z,25.65
2019-02-27T06:57:16.999Z,22.65
2019-02-27T06:59:45.473Z,26.23
2019-02-27T07:02:13.959Z,29.82
2019-02-27T07:04:42.423Z,24.75
2019-02-27T07:07:11.851Z,29.02
2019-02-27T07:09:40.302Z,24.32
2019-02-27T07:12:08.805Z,25.25
2019-02-27T07:14:39.106Z,25.30
2019-02-27T07:17:07.095Z,22.35
2019-02-27T07:19:35.552Z,23.32
2019-02-27T07:22:06.302Z,19.85
2019-02-27T07:24:33.618Z,26.25
2019-02-27T07:27:01.027Z,26.12
2019-02-27T07:29:29.499Z,22.70
2019-02-27T07:31:57.955Z,22.20
2019-02-27T07:34:26.476Z,29.70
2019-02-27T07:36:55.037Z,32.88
2019-02-27T07:39:23.518Z,29.50
2019-02-27T07:41:52.082Z,32.93
2019-02-27T07:44:20.591Z,32.17
2019-02-27T07:46:49.043Z,33.95
2019-02-27T07:49:17.542Z,35.33
2019-02-27T07:51:48.459Z,33.90
2019-02-27T07:54:15.848Z,30.52
2019-02-27T07:56:44.552Z,28.60
2019-02-27T07:59:13.007Z,30.95
2019-02-27T08:01:45.661Z,29.32
2019-02-27T08:04:14.169Z,28.92
2019-02-27T08:06:42.632Z,33.33
2019-02-27T08:09:11.139Z,32.80
2019-02-27T08:11:39.680Z,26.42
2019-02-27T08:14:09.131Z,33.95
2019-02-27T08:16:37.580Z,26.23
2019-02-27T08:19:08.945Z,27.80
2019-02-27T08:21:34.842Z,27.07
2019-02-27T08:24:06.706Z,27.87
2019-02-27T08:26:33.115Z,28.75
2019-02-27T08:29:01.626Z,23.60
2019-02-27T08:31:32.052Z,24.47
2019-02-27T08:33:58.989Z,25.43
2019-02-27T08:36:27.370Z,23.45
2019-02-27T08:38:55.875Z,29.45
2019-02-27T08:41:24.328Z,25.72
2019-02-27T08:43:52.825Z,23.55
2019-02-27T08:46:21.282Z,26.62
2019-02-27T08:48:50.644Z,24.50
2019-02-27T08:51:18.266Z,28.52
2019-02-27T08:53:47.134Z,29.37
2019-02-27T08:56:15.628Z,26.95
2019-02-27T08:58:44.096Z,22.70
2019-02-27T09:01:12.600Z,21.75
2019-02-27T09:03:41.050Z,28.07
2019-02-27T09:06:11.494Z,24.67
2019-02-27T09:08:43.263Z,20.17
2019-02-27T09:11:09.500Z,25.50
2019-02-27T09:13:37.945Z,24.23
2019-02-27T09:16:06.453Z,20.00
2019-02-27T09:18:36.516Z,26.20
2019-02-27T09:21:05.352Z,21.75
2019-02-27T09:23:33.821Z,24.47
2019-02-27T09:26:02.823Z,25.35
2019-02-27T09:28:30.775Z,20.75
2019-02-27T09:31:03.318Z,20.20
2019-02-27T09:33:27.748Z,21.05
2019-02-27T09:35:56.526Z,23.67
2019-02-27T09:38:27.054Z,20.62
2019-02-27T09:43:24.132Z,19.48
2019-02-27T09:45:52.992Z,20.10
2019-02-27T09:48:21.500Z,22.20
2019-02-27T09:50:49.992Z,19.35
2019-02-27T09:53:19.493Z,19.20
2019-02-27T09:55:48.236Z,24.80
2019-02-27T09:58:16.758Z,18.15
2019-02-27T10:00:46.454Z,18.98
2019-02-27T10:03:19.702Z,20.32
2019-02-27T10:05:43.425Z,18.35
2019-02-27T10:08:11.954Z,18.40
2019-02-27T10:10:44.740Z,19.92
2019-02-27T10:13:09.279Z,18.00
2019-02-27T10:15:38.140Z,19.65
2019-02-27T10:18:06.661Z,17.90
2019-02-27T10:20:37.414Z,17.62
2019-02-27T10:23:03.632Z,20.43
2019-02-27T10:25:33.114Z,17.75
2019-02-27T10:28:04.430Z,16.62
2019-02-27T10:30:30.066Z,20.37
2019-02-27T10:32:58.935Z,19.45
2019-02-27T10:35:29.538Z,19.32
2019-02-27T10:37:56.036Z,19.40
2019-02-27T10:40:24.685Z,16.27
2019-02-27T10:42:53.603Z,24.72
2019-02-27T10:45:22.095Z,18.50
2019-02-27T10:47:50.846Z,22.22
2019-02-27T10:50:19.645Z,18.05
2019-02-27T10:52:49.918Z,18.73
2019-02-27T10:55:16.638Z,21.02
2019-02-27T10:57:45.508Z,20.20
2019-02-27T11:00:16.404Z,17.67
2019-02-27T11:05:15.075Z,17.65
2019-02-27T11:07:41.060Z,16.17
2019-02-27T11:10:09.565Z,22.67
2019-02-27T11:12:38.024Z,17.45
2019-02-27T11:15:08.226Z,18.05
2019-02-27T11:17:36.399Z,16.52
2019-02-27T11:20:04.981Z,13.75
2019-02-27T11:22:33.917Z,19.55
2019-02-27T11:25:03.418Z,17.92
2019-02-27T11:27:31.882Z,14.65
2019-02-27T11:30:02.898Z,18.00
2019-02-27T11:32:30.879Z,17.32
2019-02-27T11:35:01.322Z,15.78
2019-02-27T11:37:30.171Z,11.20
2019-02-27T11:39:59.628Z,12.05
2019-02-27T11:42:28.938Z,14.83
2019-02-27T11:44:56.578Z,15.25
2019-02-27T11:47:25.450Z,14.58
2019-02-27T11:49:54.669Z,14.28
2019-02-27T11:52:27.892Z,14.90
2019-02-27T11:54:52.645Z,14.80
2019-02-27T11:57:21.111Z,12.88
2019-02-27T11:59:49.605Z,11.93
2019-02-27T12:02:18.084Z,14.45
2019-02-27T12:04:46.614Z,11.33
2019-02-27T12:07:17.208Z,11.00
2019-02-27T12:09:43.795Z,14.13
2019-02-27T12:12:12.814Z,16.02
2019-02-27T12:14:42.476Z,13.62
2019-02-27T12:17:10.912Z,15.55
2019-02-27T12:19:44.400Z,15.25
2019-02-27T12:22:09.503Z,13.33
2019-02-27T12:24:37.986Z,11.75
2019-02-27T12:27:07.305Z,12.20
2019-02-27T12:29:34.964Z,14.65
2019-02-27T12:32:03.449Z,14.63
2019-02-27T12:34:33.995Z,16.37
2019-02-27T12:37:01.702Z,17.15
2019-02-27T12:39:30.773Z,10.25
2019-02-27T12:41:59.328Z,12.73
2019-02-27T12:44:27.875Z,13.68
2019-02-27T12:46:56.736Z,14.07
2019-02-27T12:49:26.245Z,11.45
2019-02-27T12:51:54.666Z,13.70
2019-02-27T12:54:23.149Z,9.85
2019-02-27T12:56:53.957Z,10.50
2019-02-27T13:01:51.631Z,8.70
2019-02-27T13:04:20.096Z,8.10
2019-02-27T13:06:50.464Z,8.70
2019-02-27T13:09:18.928Z,8.70
2019-02-27T13:11:48.711Z,7.70
2019-02-27T13:14:17.218Z,10.30
2019-02-27T13:16:49.569Z,11.18
2019-02-27T13:19:15.486Z,7.03
2019-02-27T13:21:44.925Z,12.68
2019-02-27T13:24:15.405Z,11.68
2019-02-27T13:26:41.912Z,10.43
2019-02-27T13:29:10.357Z,8.90
2019-02-27T13:31:38.853Z,7.55
2019-02-27T13:34:07.719Z,9.45
2019-02-27T13:36:36.212Z,9.25
2019-02-27T13:39:05.973Z,8.83
2019-02-27T13:41:34.409Z,7.62
2019-02-27T13:44:03.960Z,7.72
2019-02-27T13:46:32.677Z,5.58
2019-02-27T13:49:01.179Z,3.17
2019-02-27T13:51:29.653Z,4.08
2019-02-27T13:54:00.672Z,9.80
2019-02-27T13:56:27.561Z,7.55
2019-02-27T13:58:56.128Z,9.40
2019-02-27T14:01:25.086Z,5.65
2019-02-27T14:03:53.388Z,6.67
2019-02-27T14:06:21.866Z,5.97
2019-02-27T14:08:50.348Z,7.22
2019-02-27T14:11:18.834Z,7.87
2019-02-27T14:13:47.634Z,6.95
2019-02-27T14:16:16.111Z,6.28
2019-02-27T14:18:49.826Z,5.75
2019-02-27T14:21:15.001Z,5.42
2019-02-27T14:23:42.986Z,7.80
2019-02-27T14:26:11.449Z,11.00
2019-02-27T14:28:40.223Z,7.20
2019-02-27T14:31:09.529Z,9.33
2019-02-27T14:33:37.217Z,7.75
2019-02-27T14:36:08.524Z,6.75
2019-02-27T14:38:35.216Z,7.33
2019-02-27T14:41:04.060Z,6.80
2019-02-27T14:43:33.513Z,8.53
2019-02-27T14:46:01.966Z,7.30
2019-02-27T14:48:30.538Z,6.37
2019-02-27T14:50:58.931Z,10.03
2019-02-27T14:53:27.417Z,7.42
2019-02-27T14:55:56.593Z,8.28
2019-02-27T14:58:25.117Z,8.25
2019-02-27T15:00:53.584Z,7.67
2019-02-27T15:03:29.276Z,7.47
2019-02-27T15:05:54.124Z,7.30
2019-02-27T15:08:25.139Z,9.88
2019-02-27T15:10:51.395Z,8.50
2019-02-27T15:13:19.853Z,8.53
2019-02-27T15:15:48.676Z,10.18
2019-02-27T15:18:17.217Z,8.90
2019-02-27T15:20:45.756Z,8.98
2019-02-27T15:23:14.187Z,10.72
2019-02-27T15:25:43.447Z,11.85
2019-02-27T15:28:11.753Z,11.45
2019-02-27T15:30:40.268Z,9.00
2019-02-27T15:33:08.724Z,8.45
2019-02-27T15:35:37.258Z,10.38
2019-02-27T15:38:05.680Z,8.18
2019-02-27T15:40:34.237Z,8.68
2019-02-27T15:43:10.913Z,10.70
2019-02-27T15:45:31.446Z,9.00
2019-02-27T15:47:59.938Z,11.00
2019-02-27T15:50:29.262Z,10.50
2019-02-27T15:52:57.706Z,10.38
2019-02-27T15:55:26.489Z,12.85
2019-02-27T15:57:54.993Z,13.05
2019-02-27T16:00:23.621Z,11.00
2019-02-27T16:02:52.190Z,10.18
2019-02-27T16:05:22.656Z,12.35
2019-02-27T16:07:51.247Z,20.17
2019-02-27T16:10:20.186Z,14.80
2019-02-27T16:12:49.022Z,12.05
2019-02-27T16:15:17.979Z,14.83
2019-02-27T16:17:46.041Z,16.00
2019-02-27T16:20:16.113Z,15.10
2019-02-27T16:22:43.793Z,14.98
2019-02-27T16:25:13.989Z,12.73
2019-02-27T16:27:42.170Z,14.00
2019-02-27T16:30:12.335Z,16.32
2019-02-27T16:32:40.773Z,13.95
2019-02-27T16:35:09.269Z,13.93
2019-02-27T16:37:37.821Z,11.60
2019-02-27T16:40:06.661Z,11.85
2019-02-27T16:42:36.424Z,17.42
2019-02-27T16:45:05.143Z,13.60
2019-02-27T16:47:33.624Z,13.05
2019-02-27T16:50:02.080Z,17.90
2019-02-27T16:52:31.056Z,21.15
2019-02-27T16:55:01.380Z,16.00
2019-02-27T16:57:28.759Z,23.98
2019-02-27T16:59:57.175Z,22.00
2019-02-27T17:02:26.653Z,23.65
2019-02-27T17:04:55.114Z,18.30
2019-02-27T17:07:26.068Z,27.93
2019-02-27T17:09:54.130Z,21.75
2019-02-27T17:12:22.677Z,26.52
2019-02-27T17:14:51.195Z,24.20
2019-02-27T17:17:19.751Z,20.57
2019-02-27T17:19:48.464Z,23.32
2019-02-27T17:22:17.363Z,29.32
2019-02-27T17:24:45.867Z,21.17
2019-02-27T17:27:16.485Z,18.90
2019-02-27T17:29:43.217Z,15.72
2019-02-27T17:32:11.667Z,20.72
2019-02-27T17:34:40.258Z,17.98
2019-02-27T17:37:08.733Z,22.05
2019-02-27T17:39:37.613Z,19.37
2019-02-27T17:42:06.111Z,16.57
2019-02-27T17:44:35.292Z,14.68
2019-02-27T17:47:03.116Z,16.80
2019-02-27T17:49:31.557Z,16.93
2019-02-27T17:52:11.301Z,18.20
2019-02-27T17:54:35.083Z,21.20
2019-02-27T17:57:03.826Z,16.52
2019-02-27T17:59:32.830Z,19.52
2019-02-27T18:02:01.287Z,20.35
2019-02-27T18:04:34.417Z,18.27
2019-02-27T18:07:02.887Z,35.00
2019-02-27T18:09:34.196Z,16.67
2019-02-27T18:14:30.943Z,16.05
2019-02-27T18:17:00.504Z,19.12
2019-02-27T18:19:30.397Z,23.87
2019-02-27T18:21:58.901Z,18.92
2019-02-27T18:24:27.784Z,14.20
2019-02-27T18:26:56.374Z,18.35
2019-02-27T18:29:24.875Z,19.48
2019-02-27T18:31:53.703Z,18.20
2019-02-27T18:34:22.431Z,19.20
2019-02-27T18:36:55.106Z,18.10
2019-02-27T18:39:25.711Z,22.17
2019-02-27T18:41:52.195Z,23.00
2019-02-27T18:44:21.249Z,18.70
2019-02-27T18:46:49.875Z,21.10
2019-02-27T18:49:19.332Z,20.72
2019-02-27T18:51:47.292Z,23.73
2019-02-27T18:54:15.711Z,19.35
2019-02-27T18:56:44.184Z,17.80
2019-02-27T18:59:12.754Z,24.52
2019-02-27T19:01:41.389Z,22.95
2019-02-27T19:04:10.095Z,18.42
2019-02-27T19:06:39.626Z,21.77
2019-02-27T19:09:08.533Z,20.68
2019-02-27T19:11:38.093Z,20.90
2019-02-27T19:14:06.603Z,25.45
2019-02-27T19:16:35.195Z,19.77
2019-02-27T19:19:03.700Z,28.80
2019-02-27T19:21:33.515Z,20.50
2019-02-27T19:24:01.582Z,20.92
2019-02-27T19:26:30.438Z,24.23
2019-02-27T19:28:59.575Z,19.15
2019-02-27T19:31:27.871Z,21.87
2019-02-27T19:34:00.515Z,25.82
2019-02-27T19:36:30.819Z,22.77
2019-02-27T19:38:59.564Z,21.68
2019-02-27T19:41:28.014Z,21.00
2019-02-27T19:43:56.755Z,24.67
2019-02-27T19:46:25.299Z,23.80
2019-02-27T19:48:53.764Z,19.65
2019-02-27T19:51:22.345Z,27.95
2019-02-27T19:53:50.858Z,23.92
2019-02-27T19:56:21.727Z,22.50
2019-02-27T19:58:51.159Z,28.67
2019-02-27T20:01:18.811Z,23.87
2019-02-27T20:03:47.398Z,19.70
2019-02-27T20:06:16.076Z,21.77
2019-02-27T20:08:45.672Z,22.45
2019-02-27T20:11:13.565Z,24.43
2019-02-27T20:13:42.690Z,24.50
2019-02-27T20:16:11.220Z,22.40
2019-02-27T20:18:40.528Z,26.70
2019-02-27T20:21:10.520Z,24.55
2019-02-27T20:23:36.847Z,23.40
2019-02-27T20:26:13.668Z,19.62
2019-02-27T20:28:35.099Z,21.68
2019-02-27T20:31:02.820Z,25.55
2019-02-27T20:33:34.244Z,23.85
2019-02-27T20:36:00.578Z,23.57
2019-02-27T20:38:29.080Z,26.52
2019-02-27T20:40:57.574Z,22.85
2019-02-27T20:43:29.385Z,25.43
2019-02-27T20:45:54.531Z,23.45
2019-02-27T20:48:23.033Z,24.72
2019-02-27T20:50:51.590Z,27.25
2019-02-27T20:53:21.034Z,25.15
2019-02-27T20:55:48.843Z,20.43
2019-02-27T20:58:17.647Z,24.57
2019-02-27T21:00:46.114Z,21.45
2019-02-27T21:03:14.628Z,26.07
2019-02-27T21:05:43.357Z,26.40
2019-02-27T21:08:11.887Z,22.98
2019-02-27T21:10:41.380Z,24.00
2019-02-27T21:13:15.597Z,25.23
2019-02-27T21:15:38.363Z,22.22
2019-02-27T21:18:07.116Z,24.57
2019-02-27T21:20:35.704Z,29.37
2019-02-27T21:23:04.213Z,22.45
2019-02-27T21:25:32.664Z,20.90
2019-02-27T21:28:01.170Z,24.92
2019-02-27T21:30:29.622Z,23.02
2019-02-27T21:32:58.418Z,21.20
2019-02-27T21:35:29.627Z,22.48
2019-02-27T21:37:57.009Z,23.87
2019-02-27T21:40:25.490Z,26.10
2019-02-27T21:42:54.021Z,20.82
2019-02-27T21:45:22.484Z,23.12
2019-02-27T21:47:51.751Z,26.62
2019-02-27T21:50:20.468Z,22.50
2019-02-27T21:52:48.927Z,21.40
2019-02-27T21:55:17.448Z,21.33
2019-02-27T21:57:45.898Z,19.45
2019-02-27T22:00:16.523Z,29.07
2019-02-27T22:02:44.991Z,24.37
2019-02-27T22:05:18.656Z,20.60
2019-02-27T22:07:41.923Z,26.40
2019-02-27T22:10:10.790Z,26.13
2019-02-27T22:12:39.476Z,26.45
2019-02-27T22:15:13.183Z,24.65
2019-02-27T22:17:41.614Z,30.05
2019-02-27T22:20:25.913Z,25.08
2019-02-27T22:22:55.564Z,22.22
2019-02-27T22:25:24.068Z,26.53
2019-02-27T22:27:53.071Z,21.50
2019-02-27T22:30:22.130Z,23.37
2019-02-27T22:32:50.619Z,27.98
2019-02-27T22:35:19.109Z,31.10
2019-02-27T22:37:51.277Z,23.55
2019-02-27T22:40:16.105Z,21.35
2019-02-27T22:42:48.443Z,24.40
2019-02-27T22:45:14.405Z,24.72
2019-02-27T22:47:42.834Z,25.37
2019-02-27T22:50:12.194Z,21.80
2019-02-27T22:52:40.722Z,21.23
2019-02-27T22:55:10.770Z,22.20
2019-02-27T22:57:37.807Z,25.27
2019-02-27T23:00:12.062Z,22.50
2019-02-27T23:02:40.882Z,27.22
2019-02-27T23:05:09.388Z,27.95
2019-02-27T23:07:38.138Z,28.02
2019-02-27T23:10:06.672Z,24.35
2019-02-27T23:12:35.110Z,28.83
2019-02-27T23:15:03.834Z,26.90
2019-02-27T23:17:32.991Z,24.60
2019-02-27T23:20:01.516Z,24.32
2019-02-27T23:22:31.273Z,27.48
2019-02-27T23:24:59.799Z,21.73
2019-02-27T23:27:31.947Z,27.73
2019-02-27T23:30:14.687Z,24.67
2019-02-27T23:32:39.148Z,23.57
2019-02-27T23:35:24.157Z,28.75
2019-02-27T23:38:03.306Z,27.55
2019-02-27T23:40:27.615Z,28.00
2019-02-27T23:42:56.116Z,25.20
2019-02-27T23:45:24.974Z,28.73
2019-02-27T23:47:54.453Z,22.40
2019-02-27T23:50:22.883Z,29.10
2019-02-27T23:52:53.192Z,26.50
2019-02-27T23:55:19.884Z,28.80
2019-02-27T23:57:48.575Z,26.52
